Martinsville, IL (62442)

5:44 PM CDT on March 28, 2015 (GMT -0500)
Marshall Golf Course | | Change Station
CLOSE
Current Station
Personal Weather Station
Location: Marshall, IL
Elevation: 601 ft
Nearby Weather Stations
Active Advisory: Flood Warning

Elev 601 ft 39.41 °N, 87.68 °W | Updated 0 second ago

Clear
Clear
39.6 °F
Feels Like 40 °F
N
2.7
Wind Variable Wind from NNW
Gusts 5.8 mph

Today
High -- | Low -- °F
--% Chance of Precip.
Yesterday
High -- | Low -- °F
Precip. -- in
6:42 AM 7:11 PM
Waxing Gibbous, 66% visible
Pressure 30.30 in
Visibility 10.0 miles
Clouds Clear
Windchill 40 °F
Dew Point 7 °F
Humidity 25%
Rainfall 0.00 in
Snow Depth Not available.
UV 2 out of 12
Pollen 3.90 out of 12
Air Quality Not available.
Flu Activity Not available.
METAR KMTO 282153Z AUTO VRB03KT 10SM CLR 04/M09 A3028 RMK AO2 SLP261 T00441094

More Conditions Fewer Conditions

Pressure 30.30 in
Visibility 10.0 miles
Clouds Clear
Windchill 40 °F
Dew Point 7 °F
Humidity 25%
Rainfall 0.00 in
Snow Depth Not available.
UV 2 out of 12
Pollen 3.90 out of 12
Air Quality Not available.
Flu Activity Not available.
METAR KMTO 282153Z AUTO VRB03KT 10SM CLR 04/M09 A3028 RMK AO2 SLP261 T00441094

More Conditions Fewer Conditions

10-Day Weather Forecast

Almanac

Astronomy

Mar. 28, 2015 Rise Set
Actual Time
Civil Twilight
Nautical Twilight
Astronomical Twilight
Moon
Length of Visible Light
Length of Day
Tomorrow will be .
, % of the Moon is Illuminated

Today's Extremes

State Highs State Lows

Community

WunderPhotos

Upload Photos

1,809,117 photos uploaded!

WunderBlogs® & News

Nearby

Air Quality

  Air Quality AQ Index Pollutant
Not available.

Snow Depth

Station Depth Elevation

Earthquake Activity

City Distance Mag. Time & Date
Minimum magnitude displayed is 2.5.

Coastal Water Temperatures

Place Temperature

Stations

Nearby Weather Stations

Station Location Temp. Windchill Dew Point Humidity Wind Precip. Elev Updated Type
                   
Flood Warning
Statement as of 1:30 PM EDT on March 28, 2015

The Flood Warning continues for
the Wabash River at Terre Haute.
* From Sunday evening to Monday evening.
* At 1:00 PM Saturday the stage was 12.0 feet.
* Flood stage is 14.0 feet.
* Minor flooding is forecast.
* Forecast... rise above flood stage by tomorrow late evening and
continue to rise to near 14.1 feet by early Monday morning.The
river will fall below flood stage by late Monday morning.
* At 14.0 feet... flood waters begin to enter the two breaks in the
Honey Creek levee maintained by the Honey Creek levee association.
These two breaks occurred during the April 2013 flood.


Lat... Lon 3960 8741 3945 8747 3932 8763 3930 8757
      3943 8740 3960 8736